createdAt,value
2023-04-03T00:00:26.989Z,100549.69
2023-04-03T00:02:56.788Z,100541.66
2023-04-03T00:05:29.980Z,100540.81
2023-04-03T00:07:57.261Z,100534.00
2023-04-03T00:10:27.020Z,100533.94
2023-04-03T00:13:02.643Z,100527.50
2023-04-03T00:15:35.937Z,100528.31
2023-04-03T00:18:08.918Z,100527.13
2023-04-03T00:20:36.529Z,100537.97
2023-04-03T00:23:09.377Z,100530.72
2023-04-03T00:25:37.554Z,100523.88
2023-04-03T00:28:07.263Z,100522.25
2023-04-03T00:30:38.388Z,100524.66
2023-04-03T00:33:06.425Z,100529.13
2023-04-03T00:35:40.787Z,100528.72
2023-04-03T00:38:09.025Z,100531.94
2023-04-03T00:40:42.805Z,100527.91
2023-04-03T00:43:12.800Z,100525.47
2023-04-03T00:45:43.359Z,100527.09
2023-04-03T00:48:19.316Z,100529.50
2023-04-03T00:50:50.901Z,100522.63
2023-04-03T00:53:26.594Z,100520.59
2023-04-03T00:56:02.960Z,100518.19
2023-04-03T00:58:46.733Z,100521.03
2023-04-03T01:01:21.034Z,100523.03
2023-04-03T01:03:49.083Z,100513.34
2023-04-03T01:06:33.032Z,100516.16
2023-04-03T01:09:08.731Z,100516.56
2023-04-03T01:11:39.314Z,100508.94
2023-04-03T01:14:14.920Z,100516.56
2023-04-03T01:16:54.668Z,100514.56
2023-04-03T01:19:24.240Z,100508.91
2023-04-03T01:22:13.886Z,100517.38
2023-04-03T01:24:43.398Z,100519.78
2023-04-03T01:27:18.183Z,100509.28
2023-04-03T01:29:46.469Z,100517.38
2023-04-03T01:32:16.234Z,100515.72
2023-04-03T01:34:44.036Z,100511.69
2023-04-03T01:37:16.341Z,100512.09
2023-04-03T01:39:46.690Z,100520.13
2023-04-03T01:42:21.115Z,100516.94
2023-04-03T01:44:51.321Z,100515.72
2023-04-03T01:47:18.799Z,100514.13
2023-04-03T01:49:50.303Z,100503.22
2023-04-03T01:52:19.865Z,100500.75
2023-04-03T01:54:53.108Z,100510.03
2023-04-03T01:57:22.761Z,100502.03
2023-04-03T01:59:55.311Z,100506.44
2023-04-03T02:02:30.014Z,100506.84
2023-04-03T02:05:00.581Z,100503.16
2023-04-03T02:07:30.779Z,100499.09
2023-04-03T02:09:58.981Z,100497.50
2023-04-03T02:12:26.377Z,100497.13
2023-04-03T02:14:53.885Z,100495.91
2023-04-03T02:17:29.080Z,100494.31
2023-04-03T02:19:56.402Z,100494.69
2023-04-03T02:22:24.641Z,100505.56
2023-04-03T02:24:53.370Z,100505.56
2023-04-03T02:27:22.994Z,100502.75
2023-04-03T02:29:53.383Z,100493.47
2023-04-03T02:32:26.176Z,100499.09
2023-04-03T02:34:59.209Z,100501.53
2023-04-03T02:37:31.105Z,100507.56
2023-04-03T02:40:00.658Z,100506.38
2023-04-03T02:42:31.863Z,100504.72
2023-04-03T02:45:04.668Z,100503.13
2023-04-03T02:47:34.382Z,100500.31
2023-04-03T02:50:07.898Z,100500.72
2023-04-03T02:52:35.304Z,100494.22
2023-04-03T02:55:05.738Z,100494.22
2023-04-03T02:57:36.341Z,100499.50
2023-04-03T03:00:07.649Z,100497.88
2023-04-03T03:02:35.218Z,100491.03
2023-04-03T03:05:03.019Z,100500.72
2023-04-03T03:07:35.531Z,100510.78
2023-04-03T03:10:06.609Z,100513.16
2023-04-03T03:12:33.923Z,100510.34
2023-04-03T03:15:07.038Z,100510.34
2023-04-03T03:17:37.682Z,100512.00
2023-04-03T03:20:16.247Z,100510.34
2023-04-03T03:22:49.198Z,100505.13
2023-04-03T03:25:25.029Z,100503.91
2023-04-03T03:27:52.286Z,100510.75
2023-04-03T03:30:26.169Z,100502.31
2023-04-03T03:33:02.757Z,100510.38
2023-04-03T03:35:36.670Z,100514.41
2023-04-03T03:38:12.712Z,100511.22
2023-04-03T03:40:51.142Z,100511.63
2023-04-03T03:43:29.271Z,100518.94
2023-04-03T03:46:08.686Z,100515.72
2023-04-03T03:48:36.291Z,100514.91
2023-04-03T03:51:06.361Z,100516.50
2023-04-03T03:53:46.770Z,100526.53
2023-04-03T03:56:24.996Z,100526.94
2023-04-03T03:58:57.190Z,100519.69
2023-04-03T04:01:26.266Z,100531.34
2023-04-03T04:03:57.053Z,100532.94
2023-04-03T04:06:30.743Z,100535.75
2023-04-03T04:09:07.100Z,100536.97
2023-04-03T04:11:42.194Z,100536.16
2023-04-03T04:14:17.556Z,100526.88
2023-04-03T04:16:48.626Z,100532.53
2023-04-03T04:19:21.329Z,100532.53
2023-04-03T04:21:50.859Z,100530.50
2023-04-03T04:24:21.288Z,100535.72
2023-04-03T04:26:50.675Z,100526.88
2023-04-03T04:29:23.762Z,100524.44
2023-04-03T04:31:54.823Z,100526.03
2023-04-03T04:34:26.275Z,100532.09
2023-04-03T04:36:56.731Z,100530.50
2023-04-03T04:39:33.638Z,100520.81
2023-04-03T04:42:02.286Z,100526.09
2023-04-03T04:44:39.269Z,100526.91
2023-04-03T04:47:11.731Z,100543.38
2023-04-03T04:49:44.444Z,100530.94
2023-04-03T04:52:17.704Z,100539.78
2023-04-03T04:54:52.645Z,100545.84
2023-04-03T04:57:31.799Z,100546.22
2023-04-03T05:00:05.478Z,100546.22
2023-04-03T05:02:35.237Z,100547.03
2023-04-03T05:05:05.602Z,100544.59
2023-04-03T05:07:37.944Z,100553.09
2023-04-03T05:10:11.375Z,100553.88
2023-04-03T05:12:39.355Z,100551.09
2023-04-03T05:15:15.354Z,100554.72
2023-04-03T05:17:50.391Z,100555.13
2023-04-03T05:20:20.897Z,100559.16
2023-04-03T05:22:52.255Z,100568.81
2023-04-03T05:25:20.049Z,100564.81
2023-04-03T05:27:52.012Z,100567.69
2023-04-03T05:30:22.187Z,100575.75
2023-04-03T05:32:57.148Z,100577.00
2023-04-03T05:35:45.323Z,100581.06
2023-04-03T05:38:31.440Z,100581.88
2023-04-03T05:40:59.732Z,100585.56
2023-04-03T05:43:34.738Z,100586.69
2023-04-03T05:46:16.994Z,100589.97
2023-04-03T05:48:51.021Z,100587.94
2023-04-03T05:51:32.154Z,100584.31
2023-04-03T05:54:17.093Z,100592.84
2023-04-03T05:56:47.631Z,100590.06
2023-04-03T05:59:22.421Z,100590.03
2023-04-03T06:02:00.874Z,100586.78
2023-04-03T06:04:31.421Z,100584.84
2023-04-03T06:07:05.595Z,100587.22
2023-04-03T06:09:37.394Z,100587.66
2023-04-03T06:12:12.458Z,100590.47
2023-04-03T06:14:49.460Z,100586.84
2023-04-03T06:17:28.130Z,100592.50
2023-04-03T06:20:04.558Z,100603.38
2023-04-03T06:22:38.885Z,100601.78
2023-04-03T06:25:20.542Z,100600.19
2023-04-03T06:27:56.646Z,100599.38
2023-04-03T06:30:31.960Z,100609.03
2023-04-03T06:33:04.778Z,100601.00
2023-04-03T06:35:39.663Z,100599.78
2023-04-03T06:38:12.366Z,100602.72
2023-04-03T06:40:48.761Z,100594.25
2023-04-03T06:43:19.556Z,100598.28
2023-04-03T06:45:50.712Z,100600.34
2023-04-03T06:48:30.461Z,100597.19
2023-04-03T06:51:04.550Z,100607.25
2023-04-03T06:53:41.833Z,100607.63
2023-04-03T06:56:14.145Z,100604.03
2023-04-03T06:58:51.287Z,100609.72
2023-04-03T07:01:31.543Z,100607.69
2023-04-03T07:04:08.798Z,100606.91
2023-04-03T07:06:45.605Z,100604.06
2023-04-03T07:09:22.615Z,100604.88
2023-04-03T07:12:05.210Z,100605.69
2023-04-03T07:14:45.136Z,100610.16
2023-04-03T07:17:21.470Z,100607.72
2023-04-03T07:19:55.174Z,100619.03
2023-04-03T07:22:30.943Z,100617.03
2023-04-03T07:25:10.543Z,100622.28
2023-04-03T07:27:52.198Z,100632.41
2023-04-03T07:30:28.778Z,100630.38
2023-04-03T07:32:59.779Z,100630.38
2023-04-03T07:35:37.466Z,100638.88
2023-04-03T07:38:11.189Z,100640.88
2023-04-03T07:40:42.396Z,100638.44
2023-04-03T07:43:15.744Z,100639.66
2023-04-03T07:45:58.945Z,100639.28
2023-04-03T07:48:36.457Z,100649.38
2023-04-03T07:51:06.327Z,100638.88
2023-04-03T07:53:34.590Z,100637.66
2023-04-03T07:56:10.569Z,100641.28
2023-04-03T07:58:43.455Z,100647.34
2023-04-03T08:01:11.456Z,100640.53
2023-04-03T08:03:44.692Z,100642.16
2023-04-03T08:06:16.410Z,100640.94
2023-04-03T08:08:45.669Z,100635.28
2023-04-03T08:11:16.032Z,100637.28
2023-04-03T08:13:47.575Z,100638.94
2023-04-03T08:16:23.283Z,100636.50
2023-04-03T08:18:56.140Z,100630.44
2023-04-03T08:21:27.381Z,100635.28
2023-04-03T08:23:55.948Z,100645.41
2023-04-03T08:26:23.666Z,100635.28
2023-04-03T08:28:59.749Z,100640.53
2023-04-03T08:31:28.405Z,100640.13
2023-04-03T08:33:59.229Z,100644.97
2023-04-03T08:36:33.960Z,100636.50
2023-04-03T08:39:05.792Z,100644.59
2023-04-03T08:41:42.734Z,100638.94
2023-04-03T08:44:28.596Z,100636.09
2023-04-03T08:47:43.801Z,100640.16
2023-04-03T08:50:21.806Z,100647.41
2023-04-03T08:52:59.988Z,100644.59
2023-04-03T08:55:52.426Z,100647.03
2023-04-03T08:58:33.168Z,100647.44
2023-04-03T09:01:14.185Z,100646.22
2023-04-03T09:03:51.814Z,100639.34
2023-04-03T09:06:27.493Z,100646.19
2023-04-03T09:09:13.556Z,100647.81
2023-04-03T09:12:19.188Z,100647.44
2023-04-03T09:15:27.922Z,100641.78
2023-04-03T09:18:17.775Z,100644.59
2023-04-03T09:21:02.888Z,100645.78
2023-04-03T09:23:45.527Z,100637.69
2023-04-03T09:26:28.473Z,100636.06
2023-04-03T09:29:10.992Z,100632.41
2023-04-03T09:31:45.453Z,100631.13
2023-04-03T09:34:30.675Z,100629.16
2023-04-03T09:37:08.304Z,100618.19
2023-04-03T09:39:55.731Z,100631.81
2023-04-03T09:42:27.949Z,100638.56
2023-04-03T09:45:00.685Z,100641.41
2023-04-03T09:47:36.084Z,100637.81
2023-04-03T09:50:15.771Z,100646.34
2023-04-03T09:52:52.868Z,100629.00
2023-04-03T09:55:24.373Z,100635.53
2023-04-03T09:57:55.770Z,100629.47
2023-04-03T10:00:37.733Z,100632.00
2023-04-03T10:03:06.943Z,100628.28
2023-04-03T10:05:44.440Z,100621.38
2023-04-03T10:08:29.809Z,100626.97
2023-04-03T10:11:18.007Z,100623.06
2023-04-03T10:14:07.263Z,100622.88
2023-04-03T10:16:53.804Z,100622.19
2023-04-03T10:19:44.900Z,100620.44
2023-04-03T10:22:21.934Z,100611.13
2023-04-03T10:25:18.661Z,100611.81
2023-04-03T10:28:10.394Z,100610.97
2023-04-03T10:30:50.684Z,100615.63
2023-04-03T10:33:31.836Z,100615.47
2023-04-03T10:36:19.982Z,100612.13
2023-04-03T10:39:11.179Z,100609.00
2023-04-03T10:42:16.788Z,100608.78
2023-04-03T10:45:10.861Z,100612.94
2023-04-03T10:47:51.104Z,100607.88
2023-04-03T10:50:39.491Z,100606.28
2023-04-03T10:53:55.732Z,100602.31
2023-04-03T10:56:35.666Z,100594.22
2023-04-03T10:59:32.424Z,100594.66
2023-04-03T11:02:05.819Z,100594.25
2023-04-03T11:04:36.640Z,100601.19
2023-04-03T11:07:19.201Z,100591.50
2023-04-03T11:09:59.762Z,100589.91
2023-04-03T11:12:43.565Z,100581.00
2023-04-03T11:15:19.124Z,100583.03
2023-04-03T11:17:56.648Z,100580.22
2023-04-03T11:20:34.461Z,100579.00
2023-04-03T11:23:35.582Z,100566.91
2023-04-03T11:26:18.591Z,100579.06
2023-04-03T11:28:54.564Z,100579.06
2023-04-03T11:32:03.034Z,100576.25
2023-04-03T11:34:47.449Z,100571.41
2023-04-03T11:37:49.581Z,100575.84
2023-04-03T11:40:23.715Z,100576.22
2023-04-03T11:43:05.824Z,100563.72
2023-04-03T11:45:56.075Z,100551.59
2023-04-03T11:48:30.539Z,100559.25
2023-04-03T11:51:16.538Z,100552.00
2023-04-03T11:53:49.543Z,100553.63
2023-04-03T11:56:34.006Z,100554.44
2023-04-03T11:59:19.447Z,100562.13
2023-04-03T12:01:55.012Z,100549.97
2023-04-03T12:04:27.953Z,100553.19
2023-04-03T12:07:13.677Z,100550.75
2023-04-03T12:09:42.284Z,100546.69
2023-04-03T12:12:33.326Z,100551.88
2023-04-03T12:15:55.924Z,100543.22
2023-04-03T12:18:54.994Z,100542.09
2023-04-03T12:21:44.115Z,100525.34
2023-04-03T12:24:18.357Z,100525.00
2023-04-03T12:26:52.844Z,100524.97
2023-04-03T12:29:33.382Z,100526.19
2023-04-03T12:32:08.377Z,100529.72
2023-04-03T12:35:11.486Z,100525.66
2023-04-03T12:38:16.375Z,100521.63
2023-04-03T12:41:19.113Z,100527.38
2023-04-03T12:44:07.998Z,100513.63
2023-04-03T12:46:52.264Z,100515.22
2023-04-03T12:49:46.254Z,100509.16
2023-04-03T12:52:52.278Z,100499.13
2023-04-03T12:55:28.451Z,100504.69
2023-04-03T12:58:13.999Z,100506.78
2023-04-03T13:00:45.095Z,100510.81
2023-04-03T13:03:33.219Z,100515.94
2023-04-03T13:06:05.444Z,100501.00
2023-04-03T13:08:39.126Z,100508.00
2023-04-03T13:11:17.422Z,100497.22
2023-04-03T13:14:03.195Z,100507.00
2023-04-03T13:16:34.621Z,100508.78
2023-04-03T13:19:08.202Z,100516.13
2023-04-03T13:21:36.397Z,100511.75
2023-04-03T13:24:15.371Z,100506.16
2023-04-03T13:26:48.979Z,100513.84
2023-04-03T13:29:31.034Z,100499.34
2023-04-03T13:32:05.523Z,100494.00
2023-04-03T13:34:46.572Z,100486.13
2023-04-03T13:37:34.791Z,100489.03
2023-04-03T13:40:08.570Z,100485.00
2023-04-03T13:42:42.528Z,100484.63
2023-04-03T13:45:21.218Z,100481.78
2023-04-03T13:47:52.340Z,100484.19
2023-04-03T13:50:26.822Z,100476.88
2023-04-03T13:53:04.033Z,100479.72
2023-04-03T13:55:40.642Z,100476.47
2023-04-03T13:58:11.894Z,100473.66
2023-04-03T14:00:57.093Z,100471.53
2023-04-03T14:03:38.570Z,100461.47
2023-04-03T14:06:13.466Z,100464.22
2023-04-03T14:08:46.345Z,100467.94
2023-04-03T14:11:25.188Z,100459.00
2023-04-03T14:14:00.167Z,100464.66
2023-04-03T14:16:38.702Z,100463.00
2023-04-03T14:19:07.602Z,100468.69
2023-04-03T14:21:41.603Z,100457.00
2023-04-03T14:24:15.261Z,100459.50
2023-04-03T14:26:44.627Z,100458.28
2023-04-03T14:29:13.770Z,100452.59
2023-04-03T14:31:44.191Z,100450.59
2023-04-03T14:34:18.913Z,100441.75
2023-04-03T14:36:53.513Z,100451.03
2023-04-03T14:39:21.593Z,100448.63
2023-04-03T14:41:49.604Z,100441.38
2023-04-03T14:44:27.635Z,100444.59
2023-04-03T14:46:58.448Z,100445.81
2023-04-03T14:49:34.663Z,100442.97
2023-04-03T14:52:40.609Z,100444.19
2023-04-03T14:55:13.068Z,100445.00
2023-04-03T14:57:46.838Z,100442.19
2023-04-03T15:00:23.640Z,100430.84
2023-04-03T15:02:54.464Z,100439.16
2023-04-03T15:05:26.138Z,100436.66
2023-04-03T15:08:01.912Z,100433.34
2023-04-03T15:10:34.230Z,100431.41
2023-04-03T15:13:07.496Z,100438.63
2023-04-03T15:15:38.109Z,100433.16
2023-04-03T15:18:34.112Z,100433.44
2023-04-03T15:21:07.905Z,100435.13
2023-04-03T15:23:36.382Z,100440.94
2023-04-03T15:26:04.909Z,100441.06
2023-04-03T15:28:42.034Z,100437.50
2023-04-03T15:31:10.292Z,100430.75
2023-04-03T15:33:42.060Z,100433.59
2023-04-03T15:36:29.211Z,100436.38
2023-04-03T15:39:07.212Z,100442.56
2023-04-03T15:41:35.283Z,100449.06
2023-04-03T15:44:05.797Z,100437.34
2023-04-03T15:46:40.986Z,100441.09
2023-04-03T15:49:11.749Z,100441.13
2023-04-03T15:51:55.387Z,100446.03
2023-04-03T15:54:30.605Z,100439.56
2023-04-03T15:57:01.643Z,100437.94
2023-04-03T15:59:36.072Z,100440.38
2023-04-03T16:02:14.537Z,100434.31
2023-04-03T16:04:44.850Z,100435.09
2023-04-03T16:07:16.430Z,100439.56
2023-04-03T16:09:44.279Z,100437.97
2023-04-03T16:12:14.967Z,100431.91
2023-04-03T16:14:47.746Z,100440.03
2023-04-03T16:17:25.265Z,100434.38
2023-04-03T16:19:56.650Z,100434.84
2023-04-03T16:22:27.085Z,100443.34
2023-04-03T16:24:55.595Z,100440.50
2023-04-03T16:27:31.916Z,100434.03
2023-04-03T16:30:06.504Z,100436.09
2023-04-03T16:32:42.267Z,100444.16
2023-04-03T16:35:15.492Z,100446.59
2023-04-03T16:37:48.296Z,100447.38
2023-04-03T16:40:17.326Z,100453.47
2023-04-03T16:42:48.461Z,100454.28
2023-04-03T16:45:16.497Z,100448.22
2023-04-03T16:47:47.099Z,100455.09
2023-04-03T16:50:20.480Z,100454.31
2023-04-03T16:52:48.385Z,100461.53
2023-04-03T16:55:22.780Z,100461.97
2023-04-03T16:57:50.532Z,100463.59
2023-04-03T17:00:23.527Z,100470.44
2023-04-03T17:02:54.137Z,100474.91
2023-04-03T17:05:21.718Z,100479.75
2023-04-03T17:07:51.724Z,100481.78
2023-04-03T17:10:27.637Z,100488.25
2023-04-03T17:12:55.594Z,100484.97
2023-04-03T17:15:24.802Z,100494.69
2023-04-03T17:17:55.188Z,100486.22
2023-04-03T17:20:23.337Z,100495.91
2023-04-03T17:22:54.852Z,100490.25
2023-04-03T17:25:26.057Z,100490.69
2023-04-03T17:27:58.474Z,100485.41
2023-04-03T17:30:31.195Z,100488.63
2023-04-03T17:33:01.584Z,100487.00
2023-04-03T17:35:35.076Z,100490.63
2023-04-03T17:38:05.859Z,100493.88
2023-04-03T17:40:36.349Z,100506.00
2023-04-03T17:43:07.422Z,100512.47
2023-04-03T17:45:40.188Z,100511.25
2023-04-03T17:48:08.198Z,100508.41
2023-04-03T17:50:38.214Z,100514.91
2023-04-03T17:53:05.790Z,100526.19
2023-04-03T17:55:40.713Z,100516.47
2023-04-03T17:58:08.388Z,100524.97
2023-04-03T18:00:37.253Z,100538.28
2023-04-03T18:03:10.521Z,100529.81
2023-04-03T18:05:38.714Z,100543.13
2023-04-03T18:08:09.559Z,100541.91
2023-04-03T18:10:43.734Z,100543.13
2023-04-03T18:13:12.169Z,100549.59
2023-04-03T18:15:45.610Z,100552.81
2023-04-03T18:18:13.413Z,100549.59
2023-04-03T18:20:43.504Z,100559.25
2023-04-03T18:23:13.985Z,100559.25
2023-04-03T18:25:42.013Z,100575.81
2023-04-03T18:28:09.874Z,100581.47
2023-04-03T18:30:38.031Z,100589.94
2023-04-03T18:33:06.128Z,100594.38
2023-04-03T18:35:39.277Z,100600.03
2023-04-03T18:38:09.089Z,100604.88
2023-04-03T18:40:36.887Z,100606.50
2023-04-03T18:43:04.398Z,100605.31
2023-04-03T18:45:32.852Z,100611.34
2023-04-03T18:48:02.878Z,100615.38
2023-04-03T18:50:30.939Z,100617.00
2023-04-03T18:52:58.651Z,100623.44
2023-04-03T18:55:33.039Z,100616.97
2023-04-03T18:58:00.883Z,100622.63
2023-04-03T19:00:29.249Z,100623.78
2023-04-03T19:03:02.510Z,100635.09
2023-04-03T19:05:30.039Z,100637.53
2023-04-03T19:07:58.032Z,100660.53
2023-04-03T19:10:27.963Z,100663.75
2023-04-03T19:12:56.256Z,100658.91
2023-04-03T19:15:25.320Z,100661.38
2023-04-03T19:17:53.259Z,100664.56
2023-04-03T19:20:24.181Z,100679.13
2023-04-03T19:22:58.360Z,100673.47
2023-04-03T19:25:29.511Z,100683.91
2023-04-03T19:27:59.899Z,100702.50
2023-04-03T19:30:31.910Z,100700.84
2023-04-03T19:32:59.532Z,100700.47
2023-04-03T19:35:28.310Z,100694.03
2023-04-03T19:37:58.727Z,100696.81
2023-04-03T19:40:29.067Z,100704.47
2023-04-03T19:42:56.605Z,100713.34
2023-04-03T19:45:27.838Z,100711.34
2023-04-03T19:47:55.665Z,100705.31
2023-04-03T19:50:23.230Z,100708.44
2023-04-03T19:52:53.579Z,100709.22
2023-04-03T19:55:24.205Z,100692.72
2023-04-03T19:57:58.385Z,100702.84
2023-04-03T20:00:34.444Z,100714.56
2023-04-03T20:03:03.100Z,100721.41
2023-04-03T20:05:33.667Z,100718.56
2023-04-03T20:08:01.461Z,100722.56
2023-04-03T20:10:32.480Z,100708.78
2023-04-03T20:13:00.054Z,100719.28
2023-04-03T20:15:28.568Z,100721.34
2023-04-03T20:17:57.503Z,100729.81
2023-04-03T20:20:28.730Z,100721.34
2023-04-03T20:22:57.628Z,100725.75
2023-04-03T20:28:02.472Z,100733.44
2023-04-03T20:30:30.114Z,100732.97
2023-04-03T20:32:59.170Z,100733.41
2023-04-03T20:35:31.715Z,100733.81
2023-04-03T20:37:59.758Z,100734.22
2023-04-03T20:40:29.856Z,100736.22
2023-04-03T20:42:58.538Z,100730.16
2023-04-03T20:45:26.223Z,100729.75
2023-04-03T20:47:54.331Z,100728.94
2023-04-03T20:50:28.441Z,100729.34
2023-04-03T20:53:03.469Z,100736.63
2023-04-03T20:55:36.358Z,100741.41
2023-04-03T20:58:04.734Z,100740.59
2023-04-03T21:00:32.496Z,100742.97
2023-04-03T21:03:05.787Z,100744.19
2023-04-03T21:05:35.107Z,100753.50
2023-04-03T21:08:40.125Z,100748.69
2023-04-03T21:11:45.648Z,100748.28
2023-04-03T21:14:52.154Z,100743.38
2023-04-03T21:17:22.333Z,100736.91
2023-04-03T21:19:50.411Z,100745.81
2023-04-03T21:22:21.349Z,100745.81
2023-04-03T21:24:53.425Z,100740.94
2023-04-03T21:27:23.508Z,100741.72
2023-04-03T21:29:56.539Z,100739.31
2023-04-03T21:32:24.743Z,100745.78
2023-04-03T21:34:55.498Z,100741.78
2023-04-03T21:37:24.065Z,100748.16
2023-04-03T21:39:52.107Z,100736.88
2023-04-03T21:42:22.289Z,100743.72
2023-04-03T21:44:52.364Z,100742.47
2023-04-03T21:47:23.018Z,100746.53
2023-04-03T21:49:50.743Z,100743.31
2023-04-03T21:52:23.415Z,100749.00
2023-04-03T21:54:51.023Z,100748.59
2023-04-03T21:57:19.841Z,100759.81
2023-04-03T21:59:48.840Z,100754.53
2023-04-03T22:02:17.126Z,100753.34
2023-04-03T22:04:51.128Z,100755.41
2023-04-03T22:07:19.714Z,100762.22
2023-04-03T22:09:52.932Z,100767.50
2023-04-03T22:12:20.912Z,100762.66
2023-04-03T22:14:49.405Z,100761.41
2023-04-03T22:17:17.347Z,100756.56
2023-04-03T22:19:45.139Z,100763.47
2023-04-03T22:22:14.085Z,100767.50
2023-04-03T22:24:41.836Z,100772.28
2023-04-03T22:27:09.408Z,100770.66
2023-04-03T22:29:36.940Z,100765.00
2023-04-03T22:32:04.763Z,100760.97
2023-04-03T22:34:38.085Z,100770.59
2023-04-03T22:37:05.934Z,100763.78
2023-04-03T22:39:34.118Z,100760.56
2023-04-03T22:42:04.737Z,100767.38
2023-04-03T22:44:36.436Z,100761.78
2023-04-03T22:47:07.557Z,100773.03
2023-04-03T22:49:38.367Z,100762.94
2023-04-03T22:52:08.888Z,100770.59
2023-04-03T22:54:45.706Z,100772.13
2023-04-03T22:57:13.361Z,100770.97
2023-04-03T22:59:42.315Z,100770.97
2023-04-03T23:02:09.788Z,100763.34
2023-04-03T23:04:38.118Z,100758.50
2023-04-03T23:07:12.158Z,100760.06
2023-04-03T23:09:39.950Z,100755.97
2023-04-03T23:12:10.816Z,100765.69
2023-04-03T23:14:38.860Z,100768.56
2023-04-03T23:17:10.120Z,100779.44
2023-04-03T23:19:45.208Z,100765.72
2023-04-03T23:22:14.954Z,100770.09
2023-04-03T23:24:45.449Z,100774.56
2023-04-03T23:27:12.965Z,100775.00
2023-04-03T23:29:43.444Z,100774.53
2023-04-03T23:32:19.137Z,100770.09
2023-04-03T23:34:49.683Z,100773.72
2023-04-03T23:37:19.866Z,100769.69
2023-04-03T23:39:52.233Z,100764.50
2023-04-03T23:42:22.766Z,100768.91
2023-04-03T23:44:50.366Z,100765.72
2023-04-03T23:47:18.110Z,100767.28
2023-04-03T23:49:45.438Z,100768.44
2023-04-03T23:52:26.478Z,100772.88
2023-04-03T23:55:00.149Z,100768.06
2023-04-03T23:57:28.114Z,100762.41
2023-04-03T23:59:56.015Z,100758.75
